createdAt,value
2022-08-21T00:00:15.314Z,7.65
2022-08-21T00:03:17.950Z,6.53
2022-08-21T00:06:21.070Z,6.63
2022-08-21T00:09:25.000Z,8.68
2022-08-21T00:12:28.191Z,6.63
2022-08-21T00:15:33.270Z,4.90
2022-08-21T00:18:35.872Z,5.95
2022-08-21T00:21:38.552Z,10.38
2022-08-21T00:24:42.470Z,4.82
2022-08-21T00:27:45.478Z,5.05
2022-08-21T00:30:48.327Z,5.63
2022-08-21T00:33:50.940Z,7.47
2022-08-21T00:36:53.431Z,9.88
2022-08-21T00:39:57.532Z,8.93
2022-08-21T00:43:00.391Z,10.02
2022-08-21T00:46:05.220Z,7.93
2022-08-21T00:49:08.555Z,8.98
2022-08-21T00:52:14.885Z,7.05
2022-08-21T00:55:19.535Z,8.90
2022-08-21T00:58:22.620Z,6.72
2022-08-21T01:01:25.331Z,6.18
2022-08-21T01:04:28.533Z,5.63
2022-08-21T01:07:31.241Z,5.47
2022-08-21T01:10:36.148Z,5.00
2022-08-21T01:13:47.420Z,9.93
2022-08-21T01:16:53.173Z,5.47
2022-08-21T01:19:59.467Z,10.15
2022-08-21T01:23:04.899Z,8.80
2022-08-21T01:26:08.432Z,6.05
2022-08-21T01:29:16.590Z,8.77
2022-08-21T01:32:21.140Z,9.82
2022-08-21T01:35:24.312Z,5.68
2022-08-21T01:38:28.291Z,7.95
2022-08-21T01:41:31.513Z,7.80
2022-08-21T01:44:34.477Z,8.30
2022-08-21T01:47:37.698Z,9.00
2022-08-21T01:50:40.259Z,6.30
2022-08-21T01:53:44.082Z,8.55
2022-08-21T01:56:49.292Z,6.28
2022-08-21T01:59:51.852Z,5.75
2022-08-21T02:02:54.988Z,6.97
2022-08-21T02:05:57.803Z,9.90
2022-08-21T02:09:01.620Z,6.20
2022-08-21T02:12:04.712Z,7.40
2022-08-21T02:15:08.925Z,5.20
2022-08-21T02:18:11.515Z,5.65
2022-08-21T02:21:14.081Z,4.30
2022-08-21T02:24:17.894Z,7.40
2022-08-21T02:27:26.162Z,6.72
2022-08-21T02:30:32.924Z,9.35
2022-08-21T02:33:35.571Z,8.45
2022-08-21T02:36:38.200Z,14.32
2022-08-21T02:39:42.109Z,10.38
2022-08-21T02:42:44.856Z,6.45
2022-08-21T02:45:49.152Z,8.77
2022-08-21T02:48:51.631Z,9.55
2022-08-21T02:51:54.252Z,10.85
2022-08-21T02:54:58.096Z,8.98
2022-08-21T02:58:01.891Z,10.48
2022-08-21T03:01:05.280Z,8.98
2022-08-21T03:04:07.764Z,13.93
2022-08-21T03:07:11.265Z,6.15
2022-08-21T03:10:15.923Z,9.77
2022-08-21T03:13:20.234Z,8.70
2022-08-21T03:16:22.842Z,9.63
2022-08-21T03:19:25.332Z,9.05
2022-08-21T03:22:28.537Z,7.55
2022-08-21T03:25:39.918Z,7.13
2022-08-21T03:28:43.474Z,7.80
2022-08-21T03:31:46.104Z,7.68
2022-08-21T03:34:49.095Z,8.45
2022-08-21T03:37:51.661Z,10.18
2022-08-21T03:40:55.559Z,8.48
2022-08-21T03:43:58.054Z,6.78
2022-08-21T03:47:00.573Z,7.03
2022-08-21T03:50:03.182Z,4.95
2022-08-21T03:53:05.727Z,5.28
2022-08-21T03:56:09.725Z,6.47
2022-08-21T03:59:12.289Z,8.02
2022-08-21T04:02:18.427Z,5.15
2022-08-21T04:05:28.885Z,8.70
2022-08-21T04:08:31.563Z,7.65
2022-08-21T04:11:35.423Z,9.27
2022-08-21T04:14:38.152Z,6.97
2022-08-21T04:17:40.755Z,8.35
2022-08-21T04:20:48.222Z,8.23
2022-08-21T04:23:52.926Z,6.47
2022-08-21T04:26:56.773Z,7.35
2022-08-21T04:29:59.251Z,10.75
2022-08-21T04:33:01.846Z,4.07
2022-08-21T04:36:09.882Z,12.35
2022-08-21T04:39:12.567Z,12.13
2022-08-21T04:42:16.388Z,10.85
2022-08-21T04:45:23.023Z,6.43
2022-08-21T04:48:26.045Z,7.28
2022-08-21T04:51:33.763Z,11.23
2022-08-21T04:54:36.484Z,7.60
2022-08-21T04:57:49.104Z,10.25
2022-08-21T05:00:55.830Z,9.48
2022-08-21T05:04:00.979Z,6.07
2022-08-21T05:07:07.903Z,8.40
2022-08-21T05:10:12.492Z,10.95
2022-08-21T05:13:18.425Z,6.10
2022-08-21T05:16:36.687Z,7.35
2022-08-21T05:19:40.889Z,7.57
2022-08-21T05:22:43.819Z,6.63
2022-08-21T05:25:46.310Z,7.45
2022-08-21T05:28:50.113Z,9.23
2022-08-21T05:31:52.714Z,12.80
2022-08-21T05:34:55.804Z,5.93
2022-08-21T05:37:58.888Z,9.32
2022-08-21T05:41:01.502Z,8.68
2022-08-21T05:44:10.282Z,8.98
2022-08-21T05:47:13.664Z,6.50
2022-08-21T05:50:16.178Z,5.10
2022-08-21T05:53:20.606Z,6.13
2022-08-21T05:56:23.155Z,5.78
2022-08-21T05:59:28.577Z,7.97
2022-08-21T06:02:31.989Z,8.57
2022-08-21T06:05:37.080Z,6.57
2022-08-21T06:08:40.099Z,3.95
2022-08-21T06:11:42.655Z,9.15
2022-08-21T06:14:46.531Z,8.15
2022-08-21T06:17:49.027Z,5.90
2022-08-21T06:20:51.545Z,5.28
2022-08-21T06:23:54.043Z,5.40
2022-08-21T06:26:56.829Z,5.80
2022-08-21T06:30:00.668Z,11.77
2022-08-21T06:33:03.893Z,8.68
2022-08-21T06:36:06.792Z,6.38
2022-08-21T06:39:16.613Z,8.32
2022-08-21T06:42:28.812Z,7.20
2022-08-21T06:45:32.671Z,4.65
2022-08-21T06:48:35.220Z,9.32
2022-08-21T06:51:37.727Z,6.97
2022-08-21T06:54:41.590Z,9.07
2022-08-21T06:57:44.091Z,6.78
2022-08-21T07:01:00.613Z,6.38
2022-08-21T07:04:04.000Z,7.45
2022-08-21T07:07:06.519Z,9.60
2022-08-21T07:10:09.904Z,8.38
2022-08-21T07:13:24.671Z,3.63
2022-08-21T07:16:28.495Z,8.10
2022-08-21T07:19:31.113Z,5.72
2022-08-21T07:22:33.931Z,6.80
2022-08-21T07:25:36.828Z,4.28
2022-08-21T07:28:39.486Z,6.63
2022-08-21T07:31:43.405Z,3.50
2022-08-21T07:34:46.028Z,8.00
2022-08-21T07:37:49.210Z,9.05
2022-08-21T07:40:54.410Z,10.05
2022-08-21T07:43:58.171Z,4.00
2022-08-21T07:47:02.242Z,8.57
2022-08-21T07:50:05.439Z,7.03
2022-08-21T07:53:08.371Z,6.80
2022-08-21T07:56:12.044Z,5.25
2022-08-21T07:59:14.644Z,6.57
2022-08-21T08:02:25.668Z,4.47
2022-08-21T08:05:31.933Z,6.45
2022-08-21T08:08:35.028Z,9.63
2022-08-21T08:11:41.044Z,6.53
2022-08-21T08:14:43.819Z,3.75
2022-08-21T08:17:47.838Z,4.70
2022-08-21T08:20:50.428Z,6.93
2022-08-21T08:23:53.168Z,5.38
2022-08-21T08:26:57.938Z,8.32
2022-08-21T08:30:00.935Z,4.70
2022-08-21T08:33:04.754Z,5.68
2022-08-21T08:36:14.087Z,7.05
2022-08-21T08:39:26.481Z,7.05
2022-08-21T08:42:34.888Z,5.43
2022-08-21T08:45:41.547Z,6.00
2022-08-21T08:48:53.133Z,7.90
2022-08-21T08:52:02.215Z,7.05
2022-08-21T08:55:08.058Z,4.15
2022-08-21T08:58:13.321Z,7.40
2022-08-21T09:01:18.909Z,3.60
2022-08-21T09:04:26.848Z,6.57
2022-08-21T09:07:39.103Z,5.32
2022-08-21T09:10:52.926Z,6.50
2022-08-21T09:14:06.327Z,2.67
2022-08-21T09:17:21.513Z,4.30
2022-08-21T09:20:36.061Z,6.72
2022-08-21T09:23:50.064Z,4.68
2022-08-21T09:27:03.938Z,4.07
2022-08-21T09:30:08.615Z,3.45
2022-08-21T09:33:14.643Z,3.92
2022-08-21T09:36:27.918Z,2.28
2022-08-21T09:39:33.069Z,3.90
2022-08-21T09:42:42.924Z,4.65
2022-08-21T09:45:47.048Z,4.63
2022-08-21T09:48:52.053Z,4.38
2022-08-21T09:51:57.019Z,2.97
2022-08-21T09:54:59.556Z,4.57
2022-08-21T09:58:02.888Z,6.75
2022-08-21T10:01:07.826Z,3.72
2022-08-21T10:04:11.726Z,7.22
2022-08-21T10:07:16.455Z,8.32
2022-08-21T10:10:22.922Z,5.70
2022-08-21T10:13:38.515Z,5.47
2022-08-21T10:16:51.376Z,3.72
2022-08-21T10:20:02.133Z,2.58
2022-08-21T10:23:18.026Z,3.72
2022-08-21T10:26:30.946Z,5.53
2022-08-21T10:29:46.951Z,3.40
2022-08-21T10:33:01.110Z,5.93
2022-08-21T10:36:18.282Z,4.20
2022-08-21T10:39:35.603Z,7.97
2022-08-21T10:42:54.095Z,5.13
2022-08-21T10:46:09.018Z,3.35
2022-08-21T10:49:22.718Z,2.78
2022-08-21T10:52:44.205Z,3.08
2022-08-21T10:55:56.707Z,3.33
2022-08-21T10:59:11.599Z,3.58
2022-08-21T11:02:19.375Z,5.20
2022-08-21T11:05:29.859Z,7.30
2022-08-21T11:08:37.476Z,2.83
2022-08-21T11:11:55.227Z,2.95
2022-08-21T11:15:29.225Z,5.03
2022-08-21T11:18:36.290Z,4.00
2022-08-21T11:21:44.519Z,3.20
2022-08-21T11:24:52.635Z,2.45
2022-08-21T11:28:02.544Z,3.15
2022-08-21T11:31:17.191Z,5.65
2022-08-21T11:34:34.345Z,3.78
2022-08-21T11:37:51.062Z,2.72
2022-08-21T11:41:05.423Z,4.38
2022-08-21T11:44:17.345Z,4.72
2022-08-21T11:47:29.633Z,3.95
2022-08-21T11:50:35.998Z,6.72
2022-08-21T11:53:46.462Z,3.88
2022-08-21T11:56:56.093Z,6.03
2022-08-21T12:00:08.710Z,5.32
2022-08-21T12:03:15.912Z,3.15
2022-08-21T12:06:31.998Z,3.53
2022-08-21T12:09:37.630Z,2.30
2022-08-21T12:12:42.670Z,3.38
2022-08-21T12:15:46.501Z,3.15
2022-08-21T12:18:48.981Z,2.85
2022-08-21T12:21:54.115Z,6.78
2022-08-21T12:25:07.993Z,8.00
2022-08-21T12:28:13.621Z,5.68
2022-08-21T12:31:23.598Z,6.85
2022-08-21T12:34:34.151Z,3.25
2022-08-21T12:37:41.505Z,4.93
2022-08-21T12:40:49.257Z,3.42
2022-08-21T12:43:59.055Z,3.60
2022-08-21T12:47:06.081Z,5.65
2022-08-21T12:50:13.214Z,4.55
2022-08-21T12:53:27.817Z,4.55
2022-08-21T12:56:32.671Z,5.13
2022-08-21T12:59:40.188Z,7.05
2022-08-21T13:02:50.192Z,3.47
2022-08-21T13:05:54.663Z,3.83
2022-08-21T13:09:01.157Z,4.18
2022-08-21T13:12:04.050Z,5.45
2022-08-21T13:15:09.390Z,3.13
2022-08-21T13:18:23.506Z,4.70
2022-08-21T13:21:31.775Z,4.93
2022-08-21T13:24:42.712Z,3.25
2022-08-21T13:27:57.975Z,3.17
2022-08-21T13:31:02.552Z,3.78
2022-08-21T13:34:09.558Z,3.13
2022-08-21T13:37:16.386Z,3.25
2022-08-21T13:40:26.145Z,5.22
2022-08-21T13:43:32.445Z,2.38
2022-08-21T13:46:37.620Z,3.05
2022-08-21T13:49:44.590Z,2.45
2022-08-21T13:52:56.769Z,2.70
2022-08-21T13:56:01.179Z,3.40
2022-08-21T13:59:04.971Z,3.38
2022-08-21T14:02:15.015Z,1.83
2022-08-21T14:05:23.630Z,3.67
2022-08-21T14:08:31.564Z,4.25
2022-08-21T14:11:36.611Z,3.03
2022-08-21T14:14:41.107Z,3.58
2022-08-21T14:17:44.058Z,4.45
2022-08-21T14:20:47.957Z,3.13
2022-08-21T14:24:01.628Z,2.22
2022-08-21T14:27:07.683Z,1.25
2022-08-21T14:30:14.238Z,2.55
2022-08-21T14:33:22.466Z,3.55
2022-08-21T14:36:26.267Z,2.90
2022-08-21T14:39:28.743Z,1.60
2022-08-21T14:42:31.497Z,1.58
2022-08-21T14:45:34.035Z,2.38
2022-08-21T14:48:36.766Z,3.03
2022-08-21T14:51:53.818Z,1.60
2022-08-21T14:54:57.127Z,2.58
2022-08-21T14:57:59.773Z,1.17
2022-08-21T15:01:04.778Z,2.17
2022-08-21T15:04:07.336Z,3.20
2022-08-21T15:07:11.169Z,2.75
2022-08-21T15:10:14.338Z,3.22
2022-08-21T15:13:17.017Z,2.95
2022-08-21T15:16:19.496Z,3.38
2022-08-21T15:19:22.002Z,1.70
2022-08-21T15:22:28.061Z,2.63
2022-08-21T15:25:33.147Z,1.52
2022-08-21T15:28:37.733Z,3.47
2022-08-21T15:31:55.124Z,2.40
2022-08-21T15:34:58.973Z,1.77
2022-08-21T15:38:03.100Z,1.30
2022-08-21T15:41:06.727Z,1.73
2022-08-21T15:44:12.611Z,1.60
2022-08-21T15:47:18.305Z,2.25
2022-08-21T15:50:21.792Z,1.38
2022-08-21T15:53:25.599Z,3.33
2022-08-21T15:56:35.535Z,4.32
2022-08-21T15:59:42.775Z,3.40
2022-08-21T16:02:48.174Z,4.30
2022-08-21T16:05:53.243Z,2.20
2022-08-21T16:08:57.038Z,1.65
2022-08-21T16:12:00.591Z,4.10
2022-08-21T16:15:04.938Z,5.13
2022-08-21T16:18:07.777Z,1.40
2022-08-21T16:21:10.262Z,3.40
2022-08-21T16:24:14.054Z,2.13
2022-08-21T16:27:17.590Z,2.63
2022-08-21T16:30:21.862Z,3.63
2022-08-21T16:33:31.294Z,2.50
2022-08-21T16:36:35.816Z,1.58
2022-08-21T16:39:39.886Z,2.20
2022-08-21T16:42:43.782Z,2.75
2022-08-21T16:45:48.871Z,2.03
2022-08-21T16:48:55.159Z,2.40
2022-08-21T16:51:57.683Z,1.73
2022-08-21T16:55:02.538Z,4.57
2022-08-21T16:58:10.431Z,2.03
2022-08-21T17:01:16.036Z,3.38
2022-08-21T17:04:18.629Z,3.97
2022-08-21T17:07:21.127Z,1.80
2022-08-21T17:10:24.915Z,5.03
2022-08-21T17:13:27.880Z,2.72
2022-08-21T17:16:30.909Z,3.10
2022-08-21T17:19:34.503Z,3.50
2022-08-21T17:22:37.027Z,2.88
2022-08-21T17:25:44.463Z,5.25
2022-08-21T17:28:50.909Z,3.10
2022-08-21T17:31:55.718Z,2.28
2022-08-21T17:34:58.376Z,3.92
2022-08-21T17:38:00.943Z,2.63
2022-08-21T17:41:06.280Z,4.53
2022-08-21T17:44:15.344Z,3.08
2022-08-21T17:47:20.703Z,5.40
2022-08-21T17:50:23.370Z,1.60
2022-08-21T17:53:25.984Z,1.80
2022-08-21T17:56:32.619Z,3.47
2022-08-21T17:59:35.666Z,4.10
2022-08-21T18:02:38.855Z,4.30
2022-08-21T18:05:41.844Z,4.72
2022-08-21T18:08:44.307Z,2.80
2022-08-21T18:11:48.120Z,2.13
2022-08-21T18:14:51.251Z,2.47
2022-08-21T18:17:54.183Z,3.15
2022-08-21T18:20:58.031Z,2.17
2022-08-21T18:24:00.529Z,4.43
2022-08-21T18:27:06.424Z,2.95
2022-08-21T18:30:11.182Z,1.90
2022-08-21T18:33:15.100Z,1.98
2022-08-21T18:36:17.555Z,2.35
2022-08-21T18:39:35.841Z,2.53
2022-08-21T18:42:51.502Z,5.50
2022-08-21T18:45:58.543Z,2.53
2022-08-21T18:49:01.110Z,1.50
2022-08-21T18:52:05.618Z,2.67
2022-08-21T18:55:13.427Z,1.83
2022-08-21T18:58:19.034Z,3.90
2022-08-21T19:01:21.641Z,2.15
2022-08-21T19:04:43.761Z,2.38
2022-08-21T19:07:47.320Z,2.70
2022-08-21T19:10:52.136Z,3.72
2022-08-21T19:13:56.819Z,3.03
2022-08-21T19:16:59.641Z,2.00
2022-08-21T19:20:07.094Z,3.88
2022-08-21T19:23:11.417Z,6.22
2022-08-21T19:26:13.949Z,2.53
2022-08-21T19:29:20.290Z,3.72
2022-08-21T19:32:39.583Z,2.25
2022-08-21T19:35:45.610Z,3.40
2022-08-21T19:38:53.563Z,3.38
2022-08-21T19:41:58.515Z,4.70
2022-08-21T19:45:02.875Z,2.75
2022-08-21T19:48:06.376Z,1.70
2022-08-21T19:51:08.972Z,2.42
2022-08-21T19:54:17.344Z,3.00
2022-08-21T19:57:20.106Z,4.38
2022-08-21T20:00:24.326Z,2.67
2022-08-21T20:03:27.033Z,4.78
2022-08-21T20:06:29.521Z,8.00
2022-08-21T20:09:32.722Z,4.43
2022-08-21T20:12:37.046Z,2.72
2022-08-21T20:15:41.054Z,4.32
2022-08-21T20:18:44.039Z,2.30
2022-08-21T20:21:46.823Z,2.00
2022-08-21T20:24:49.622Z,3.83
2022-08-21T20:27:52.209Z,3.50
2022-08-21T20:30:56.519Z,2.38
2022-08-21T20:33:59.746Z,2.00
2022-08-21T20:37:02.893Z,2.40
2022-08-21T20:40:11.571Z,5.18
2022-08-21T20:43:35.376Z,5.78
2022-08-21T20:46:39.290Z,3.55
2022-08-21T20:49:46.166Z,6.07
2022-08-21T20:52:51.791Z,2.55
2022-08-21T20:55:56.521Z,5.07
2022-08-21T20:59:17.133Z,2.28
2022-08-21T21:02:32.885Z,2.58
2022-08-21T21:05:41.619Z,3.92
2022-08-21T21:08:48.977Z,2.95
2022-08-21T21:11:58.200Z,4.88
2022-08-21T21:15:05.923Z,5.00
2022-08-21T21:18:14.312Z,3.20
2022-08-21T21:21:22.698Z,2.70
2022-08-21T21:24:35.382Z,2.90
2022-08-21T21:27:43.574Z,3.87
2022-08-21T21:30:51.964Z,3.42
2022-08-21T21:34:01.813Z,2.22
2022-08-21T21:37:07.959Z,3.03
2022-08-21T21:40:29.336Z,1.90
2022-08-21T21:43:48.742Z,3.40
2022-08-21T21:47:01.765Z,3.83
2022-08-21T21:50:20.762Z,2.17
2022-08-21T21:53:50.612Z,4.65
2022-08-21T21:57:04.214Z,2.47
2022-08-21T22:00:12.452Z,4.60
2022-08-21T22:03:22.835Z,4.50
2022-08-21T22:06:35.763Z,5.63
2022-08-21T22:09:44.880Z,4.70
2022-08-21T22:12:58.633Z,3.30
2022-08-21T22:16:13.041Z,2.97
2022-08-21T22:19:20.848Z,4.82
2022-08-21T22:22:27.660Z,5.13
2022-08-21T22:25:35.313Z,3.53
2022-08-21T22:28:41.671Z,2.55
2022-08-21T22:31:44.677Z,2.78
2022-08-21T22:35:02.005Z,4.18
2022-08-21T22:38:18.324Z,3.58
2022-08-21T22:41:27.821Z,3.42
2022-08-21T22:44:30.711Z,3.30
2022-08-21T22:47:38.276Z,3.13
2022-08-21T22:50:41.496Z,3.88
2022-08-21T22:53:54.667Z,2.92
2022-08-21T22:57:02.646Z,3.70
2022-08-21T23:00:11.095Z,2.85
2022-08-21T23:03:24.692Z,3.55
2022-08-21T23:06:32.305Z,5.72
2022-08-21T23:09:39.219Z,3.13
2022-08-21T23:12:43.861Z,2.40
2022-08-21T23:15:59.967Z,4.82
2022-08-21T23:19:12.920Z,4.97
2022-08-21T23:22:35.922Z,3.35
2022-08-21T23:26:00.141Z,2.92
2022-08-21T23:29:24.784Z,4.05
2022-08-21T23:32:52.402Z,3.65
2022-08-21T23:36:22.440Z,3.78
2022-08-21T23:39:40.203Z,4.43
2022-08-21T23:43:07.335Z,4.88
2022-08-21T23:46:34.268Z,5.05
2022-08-21T23:49:49.328Z,3.35
2022-08-21T23:53:15.838Z,3.45
2022-08-21T23:56:29.540Z,3.63
2022-08-21T23:59:44.331Z,4.10
